sensor_id;sensor_type;location;lat;lon;timestamp;P1;durP1;ratioP1;P2;durP2;ratioP2
52025;SDS011;38041;40.058;18.328;2022-09-16T00:00:41;13.32;;;2.97;;
52025;SDS011;38041;40.058;18.328;2022-09-16T00:03:10;17.60;;;3.72;;
52025;SDS011;38041;40.058;18.328;2022-09-16T00:05:41;17.42;;;3.65;;
52025;SDS011;38041;40.058;18.328;2022-09-16T00:08:09;17.73;;;4.53;;
52025;SDS011;38041;40.058;18.328;2022-09-16T00:10:37;19.08;;;3.83;;
52025;SDS011;38041;40.058;18.328;2022-09-16T00:13:04;12.23;;;3.15;;
52025;SDS011;38041;40.058;18.328;2022-09-16T00:15:32;13.68;;;4.22;;
52025;SDS011;38041;40.058;18.328;2022-09-16T00:18:00;12.20;;;3.42;;
52025;SDS011;38041;40.058;18.328;2022-09-16T00:20:27;12.20;;;3.50;;
52025;SDS011;38041;40.058;18.328;2022-09-16T00:22:55;13.90;;;4.53;;
52025;SDS011;38041;40.058;18.328;2022-09-16T00:25:22;12.65;;;3.72;;
52025;SDS011;38041;40.058;18.328;2022-09-16T00:27:50;19.55;;;4.82;;
52025;SDS011;38041;40.058;18.328;2022-09-16T00:30:18;14.85;;;3.40;;
52025;SDS011;38041;40.058;18.328;2022-09-16T00:32:46;17.73;;;4.40;;
52025;SDS011;38041;40.058;18.328;2022-09-16T00:35:14;16.05;;;4.00;;
52025;SDS011;38041;40.058;18.328;2022-09-16T00:37:41;14.88;;;3.97;;
52025;SDS011;38041;40.058;18.328;2022-09-16T00:40:09;17.95;;;4.40;;
52025;SDS011;38041;40.058;18.328;2022-09-16T00:42:38;17.55;;;4.07;;
52025;SDS011;38041;40.058;18.328;2022-09-16T00:47:47;14.17;;;4.67;;
52025;SDS011;38041;40.058;18.328;2022-09-16T00:50:21;18.33;;;4.35;;
52025;SDS011;38041;40.058;18.328;2022-09-16T00:52:49;20.90;;;5.10;;
52025;SDS011;38041;40.058;18.328;2022-09-16T00:55:21;14.25;;;4.68;;
52025;SDS011;38041;40.058;18.328;2022-09-16T00:57:50;13.88;;;4.22;;
52025;SDS011;38041;40.058;18.328;2022-09-16T01:00:19;16.70;;;5.32;;
52025;SDS011;38041;40.058;18.328;2022-09-16T01:02:46;14.23;;;3.88;;
52025;SDS011;38041;40.058;18.328;2022-09-16T01:05:16;21.23;;;4.15;;
52025;SDS011;38041;40.058;18.328;2022-09-16T01:07:47;13.88;;;3.90;;
52025;SDS011;38041;40.058;18.328;2022-09-16T01:10:18;12.20;;;4.60;;
52025;SDS011;38041;40.058;18.328;2022-09-16T01:12:51;12.15;;;3.03;;
52025;SDS011;38041;40.058;18.328;2022-09-16T01:15:21;12.95;;;3.58;;
52025;SDS011;38041;40.058;18.328;2022-09-16T01:18:03;14.82;;;4.30;;
52025;SDS011;38041;40.058;18.328;2022-09-16T01:30:54;17.05;;;3.63;;
52025;SDS011;38041;40.058;18.328;2022-09-16T01:54:48;14.25;;;4.00;;
52025;SDS011;38041;40.058;18.328;2022-09-16T01:57:23;16.77;;;4.18;;
52025;SDS011;38041;40.058;18.328;2022-09-16T01:59:53;13.40;;;5.32;;
52025;SDS011;38041;40.058;18.328;2022-09-16T02:02:26;11.63;;;4.93;;
52025;SDS011;38041;40.058;18.328;2022-09-16T02:04:56;19.90;;;5.20;;
52025;SDS011;38041;40.058;18.328;2022-09-16T02:07:30;10.45;;;3.67;;
52025;SDS011;38041;40.058;18.328;2022-09-16T02:10:04;15.95;;;5.50;;
52025;SDS011;38041;40.058;18.328;2022-09-16T02:12:34;19.90;;;4.82;;
52025;SDS011;38041;40.058;18.328;2022-09-16T02:15:07;13.05;;;4.97;;
52025;SDS011;38041;40.058;18.328;2022-09-16T02:17:36;14.13;;;4.93;;
52025;SDS011;38041;40.058;18.328;2022-09-16T02:20:08;18.98;;;4.72;;
52025;SDS011;38041;40.058;18.328;2022-09-16T02:22:38;9.93;;;4.18;;
52025;SDS011;38041;40.058;18.328;2022-09-16T02:25:06;20.77;;;5.50;;
52025;SDS011;38041;40.058;18.328;2022-09-16T02:27:35;13.95;;;4.93;;
52025;SDS011;38041;40.058;18.328;2022-09-16T02:30:05;14.18;;;3.90;;
52025;SDS011;38041;40.058;18.328;2022-09-16T02:32:34;23.70;;;5.85;;
52025;SDS011;38041;40.058;18.328;2022-09-16T02:35:03;14.55;;;5.07;;
52025;SDS011;38041;40.058;18.328;2022-09-16T02:37:33;15.23;;;4.70;;
52025;SDS011;38041;40.058;18.328;2022-09-16T02:40:04;14.80;;;4.72;;
52025;SDS011;38041;40.058;18.328;2022-09-16T02:42:33;13.27;;;4.10;;
52025;SDS011;38041;40.058;18.328;2022-09-16T02:45:01;16.88;;;4.65;;
52025;SDS011;38041;40.058;18.328;2022-09-16T02:47:31;18.25;;;4.82;;
52025;SDS011;38041;40.058;18.328;2022-09-16T02:50:07;17.67;;;5.30;;
52025;SDS011;38041;40.058;18.328;2022-09-16T02:57:38;16.08;;;4.35;;
52025;SDS011;38041;40.058;18.328;2022-09-16T03:00:07;15.00;;;4.22;;
52025;SDS011;38041;40.058;18.328;2022-09-16T03:02:35;17.20;;;4.55;;
52025;SDS011;38041;40.058;18.328;2022-09-16T03:05:03;21.40;;;4.55;;
52025;SDS011;38041;40.058;18.328;2022-09-16T03:07:31;12.38;;;3.65;;
52025;SDS011;38041;40.058;18.328;2022-09-16T03:09:59;18.98;;;4.28;;
52025;SDS011;38041;40.058;18.328;2022-09-16T03:28:18;24.30;;;4.20;;
52025;SDS011;38041;40.058;18.328;2022-09-16T03:30:55;14.48;;;4.28;;
52025;SDS011;38041;40.058;18.328;2022-09-16T03:33:43;11.45;;;3.72;;
52025;SDS011;38041;40.058;18.328;2022-09-16T03:36:13;15.00;;;3.95;;
52025;SDS011;38041;40.058;18.328;2022-09-16T03:38:42;9.43;;;3.53;;
52025;SDS011;38041;40.058;18.328;2022-09-16T03:41:10;19.35;;;3.72;;
52025;SDS011;38041;40.058;18.328;2022-09-16T03:43:38;23.70;;;3.92;;
52025;SDS011;38041;40.058;18.328;2022-09-16T03:46:10;15.63;;;3.75;;
52025;SDS011;38041;40.058;18.328;2022-09-16T03:48:38;12.95;;;4.57;;
52025;SDS011;38041;40.058;18.328;2022-09-16T03:51:05;10.85;;;3.75;;
52025;SDS011;38041;40.058;18.328;2022-09-16T03:53:33;8.40;;;3.25;;
52025;SDS011;38041;40.058;18.328;2022-09-16T03:56:01;12.90;;;3.70;;
52025;SDS011;38041;40.058;18.328;2022-09-16T03:58:28;14.88;;;3.83;;
52025;SDS011;38041;40.058;18.328;2022-09-16T04:00:56;13.82;;;3.67;;
52025;SDS011;38041;40.058;18.328;2022-09-16T04:03:23;14.77;;;4.35;;
52025;SDS011;38041;40.058;18.328;2022-09-16T04:05:53;14.48;;;4.10;;
52025;SDS011;38041;40.058;18.328;2022-09-16T04:08:21;14.40;;;4.50;;
52025;SDS011;38041;40.058;18.328;2022-09-16T04:10:59;14.40;;;4.03;;
52025;SDS011;38041;40.058;18.328;2022-09-16T04:13:28;10.15;;;3.38;;
52025;SDS011;38041;40.058;18.328;2022-09-16T04:15:56;14.05;;;3.60;;
52025;SDS011;38041;40.058;18.328;2022-09-16T04:18:24;14.43;;;4.07;;
52025;SDS011;38041;40.058;18.328;2022-09-16T04:20:55;17.95;;;3.63;;
52025;SDS011;38041;40.058;18.328;2022-09-16T04:23:24;17.35;;;3.97;;
52025;SDS011;38041;40.058;18.328;2022-09-16T04:28:23;10.00;;;4.45;;
52025;SDS011;38041;40.058;18.328;2022-09-16T04:30:50;17.50;;;4.32;;
52025;SDS011;38041;40.058;18.328;2022-09-16T04:33:18;14.88;;;3.88;;
52025;SDS011;38041;40.058;18.328;2022-09-16T04:35:46;14.35;;;4.05;;
52025;SDS011;38041;40.058;18.328;2022-09-16T04:38:14;13.13;;;3.53;;
52025;SDS011;38041;40.058;18.328;2022-09-16T04:40:41;15.85;;;4.65;;
52025;SDS011;38041;40.058;18.328;2022-09-16T04:43:09;15.98;;;4.20;;
52025;SDS011;38041;40.058;18.328;2022-09-16T04:45:37;11.75;;;3.67;;
52025;SDS011;38041;40.058;18.328;2022-09-16T04:48:04;16.75;;;4.38;;
52025;SDS011;38041;40.058;18.328;2022-09-16T04:50:32;15.10;;;3.95;;
52025;SDS011;38041;40.058;18.328;2022-09-16T04:52:59;16.25;;;5.20;;
52025;SDS011;38041;40.058;18.328;2022-09-16T04:55:27;14.00;;;4.38;;
52025;SDS011;38041;40.058;18.328;2022-09-16T04:57:55;15.30;;;3.88;;
52025;SDS011;38041;40.058;18.328;2022-09-16T05:00:22;16.35;;;4.07;;
52025;SDS011;38041;40.058;18.328;2022-09-16T05:02:50;13.43;;;3.85;;
52025;SDS011;38041;40.058;18.328;2022-09-16T05:05:20;18.77;;;4.50;;
52025;SDS011;38041;40.058;18.328;2022-09-16T05:07:48;9.52;;;3.05;;
52025;SDS011;38041;40.058;18.328;2022-09-16T05:10:15;23.17;;;4.43;;
52025;SDS011;38041;40.058;18.328;2022-09-16T05:12:43;18.67;;;3.90;;
52025;SDS011;38041;40.058;18.328;2022-09-16T05:15:13;9.27;;;3.25;;
52025;SDS011;38041;40.058;18.328;2022-09-16T05:17:41;13.40;;;3.15;;
52025;SDS011;38041;40.058;18.328;2022-09-16T05:20:17;16.83;;;3.85;;
52025;SDS011;38041;40.058;18.328;2022-09-16T05:22:44;8.07;;;3.05;;
52025;SDS011;38041;40.058;18.328;2022-09-16T05:25:15;19.08;;;3.70;;
52025;SDS011;38041;40.058;18.328;2022-09-16T05:27:43;14.63;;;3.53;;
52025;SDS011;38041;40.058;18.328;2022-09-16T05:30:11;18.00;;;3.60;;
52025;SDS011;38041;40.058;18.328;2022-09-16T05:32:40;18.92;;;3.95;;
52025;SDS011;38041;40.058;18.328;2022-09-16T05:35:08;9.57;;;3.03;;
52025;SDS011;38041;40.058;18.328;2022-09-16T05:37:36;13.18;;;3.13;;
52025;SDS011;38041;40.058;18.328;2022-09-16T05:40:03;12.88;;;3.17;;
52025;SDS011;38041;40.058;18.328;2022-09-16T05:42:31;10.25;;;3.35;;
52025;SDS011;38041;40.058;18.328;2022-09-16T05:44:59;17.73;;;2.85;;
52025;SDS011;38041;40.058;18.328;2022-09-16T05:47:26;11.52;;;2.75;;
52025;SDS011;38041;40.058;18.328;2022-09-16T05:49:54;14.88;;;3.03;;
52025;SDS011;38041;40.058;18.328;2022-09-16T05:52:22;18.55;;;3.22;;
52025;SDS011;38041;40.058;18.328;2022-09-16T05:54:51;12.70;;;2.58;;
52025;SDS011;38041;40.058;18.328;2022-09-16T05:57:18;14.00;;;2.60;;
52025;SDS011;38041;40.058;18.328;2022-09-16T05:59:47;27.73;;;4.10;;
52025;SDS011;38041;40.058;18.328;2022-09-16T06:02:14;10.10;;;2.45;;
52025;SDS011;38041;40.058;18.328;2022-09-16T06:04:42;8.88;;;1.75;;
52025;SDS011;38041;40.058;18.328;2022-09-16T06:07:10;18.27;;;3.25;;
52025;SDS011;38041;40.058;18.328;2022-09-16T06:09:38;11.80;;;3.17;;
52025;SDS011;38041;40.058;18.328;2022-09-16T06:12:05;16.25;;;3.25;;
52025;SDS011;38041;40.058;18.328;2022-09-16T06:14:33;11.98;;;3.15;;
52025;SDS011;38041;40.058;18.328;2022-09-16T06:17:01;17.90;;;3.33;;
52025;SDS011;38041;40.058;18.328;2022-09-16T06:19:28;8.23;;;2.50;;
52025;SDS011;38041;40.058;18.328;2022-09-16T06:21:56;17.05;;;3.88;;
52025;SDS011;38041;40.058;18.328;2022-09-16T06:24:24;14.88;;;3.30;;
52025;SDS011;38041;40.058;18.328;2022-09-16T06:26:52;20.13;;;5.28;;
52025;SDS011;38041;40.058;18.328;2022-09-16T06:29:19;17.05;;;3.95;;
52025;SDS011;38041;40.058;18.328;2022-09-16T06:31:47;11.65;;;2.78;;
52025;SDS011;38041;40.058;18.328;2022-09-16T06:34:15;15.77;;;3.28;;
52025;SDS011;38041;40.058;18.328;2022-09-16T06:36:44;11.95;;;3.03;;
52025;SDS011;38041;40.058;18.328;2022-09-16T06:39:12;9.82;;;3.33;;
52025;SDS011;38041;40.058;18.328;2022-09-16T06:41:40;14.57;;;3.50;;
52025;SDS011;38041;40.058;18.328;2022-09-16T06:44:08;13.13;;;3.72;;
52025;SDS011;38041;40.058;18.328;2022-09-16T06:46:35;14.10;;;4.82;;
52025;SDS011;38041;40.058;18.328;2022-09-16T06:49:03;14.32;;;4.55;;
52025;SDS011;38041;40.058;18.328;2022-09-16T06:51:32;14.38;;;2.75;;
52025;SDS011;38041;40.058;18.328;2022-09-16T06:54:04;12.68;;;3.13;;
52025;SDS011;38041;40.058;18.328;2022-09-16T06:56:32;11.32;;;2.85;;
52025;SDS011;38041;40.058;18.328;2022-09-16T06:59:01;8.40;;;2.88;;
52025;SDS011;38041;40.058;18.328;2022-09-16T07:01:30;19.50;;;4.50;;
52025;SDS011;38041;40.058;18.328;2022-09-16T07:04:00;14.32;;;4.28;;
52025;SDS011;38041;40.058;18.328;2022-09-16T07:06:28;12.15;;;2.97;;
52025;SDS011;38041;40.058;18.328;2022-09-16T07:09:16;11.75;;;4.22;;
52025;SDS011;38041;40.058;18.328;2022-09-16T07:11:44;17.95;;;4.75;;
52025;SDS011;38041;40.058;18.328;2022-09-16T07:14:11;16.20;;;4.72;;
52025;SDS011;38041;40.058;18.328;2022-09-16T07:16:39;13.13;;;2.25;;
52025;SDS011;38041;40.058;18.328;2022-09-16T07:19:07;20.08;;;4.05;;
52025;SDS011;38041;40.058;18.328;2022-09-16T07:21:35;9.75;;;2.40;;
52025;SDS011;38041;40.058;18.328;2022-09-16T07:24:02;11.43;;;3.70;;
52025;SDS011;38041;40.058;18.328;2022-09-16T07:26:31;9.75;;;2.58;;
52025;SDS011;38041;40.058;18.328;2022-09-16T07:29:00;10.82;;;4.03;;
52025;SDS011;38041;40.058;18.328;2022-09-16T07:31:29;24.00;;;4.85;;
52025;SDS011;38041;40.058;18.328;2022-09-16T07:33:57;13.93;;;4.10;;
52025;SDS011;38041;40.058;18.328;2022-09-16T07:36:36;10.23;;;4.65;;
52025;SDS011;38041;40.058;18.328;2022-09-16T07:39:04;7.28;;;2.90;;
52025;SDS011;38041;40.058;18.328;2022-09-16T07:41:33;10.05;;;2.45;;
52025;SDS011;38041;40.058;18.328;2022-09-16T07:44:01;8.57;;;2.35;;
52025;SDS011;38041;40.058;18.328;2022-09-16T07:46:30;8.55;;;1.25;;
52025;SDS011;38041;40.058;18.328;2022-09-16T07:48:59;8.93;;;2.00;;
52025;SDS011;38041;40.058;18.328;2022-09-16T07:51:27;11.38;;;3.78;;
52025;SDS011;38041;40.058;18.328;2022-09-16T07:53:56;9.30;;;2.30;;
52025;SDS011;38041;40.058;18.328;2022-09-16T07:56:26;10.68;;;2.00;;
52025;SDS011;38041;40.058;18.328;2022-09-16T07:58:54;10.40;;;1.83;;
52025;SDS011;38041;40.058;18.328;2022-09-16T08:01:23;11.38;;;3.38;;
52025;SDS011;38041;40.058;18.328;2022-09-16T08:03:51;9.63;;;2.78;;
52025;SDS011;38041;40.058;18.328;2022-09-16T08:06:20;13.20;;;1.90;;
52025;SDS011;38041;40.058;18.328;2022-09-16T08:08:50;16.45;;;2.20;;
52025;SDS011;38041;40.058;18.328;2022-09-16T08:11:18;15.70;;;1.58;;
52025;SDS011;38041;40.058;18.328;2022-09-16T08:13:46;7.63;;;1.95;;
52025;SDS011;38041;40.058;18.328;2022-09-16T08:16:15;7.75;;;1.45;;
52025;SDS011;38041;40.058;18.328;2022-09-16T08:18:43;9.02;;;2.00;;
52025;SDS011;38041;40.058;18.328;2022-09-16T08:21:13;7.03;;;1.48;;
52025;SDS011;38041;40.058;18.328;2022-09-16T08:23:41;8.38;;;1.83;;
52025;SDS011;38041;40.058;18.328;2022-09-16T08:26:10;10.82;;;1.40;;
52025;SDS011;38041;40.058;18.328;2022-09-16T08:28:39;6.95;;;1.63;;
52025;SDS011;38041;40.058;18.328;2022-09-16T08:31:10;7.93;;;1.50;;
52025;SDS011;38041;40.058;18.328;2022-09-16T08:33:39;14.27;;;2.55;;
52025;SDS011;38041;40.058;18.328;2022-09-16T08:36:10;14.57;;;2.42;;
52025;SDS011;38041;40.058;18.328;2022-09-16T08:38:40;10.45;;;3.25;;
52025;SDS011;38041;40.058;18.328;2022-09-16T08:43:42;9.35;;;4.22;;
52025;SDS011;38041;40.058;18.328;2022-09-16T08:51:11;6.25;;;1.92;;
52025;SDS011;38041;40.058;18.328;2022-09-16T08:56:13;6.40;;;1.55;;
52025;SDS011;38041;40.058;18.328;2022-09-16T08:58:45;14.13;;;4.63;;
52025;SDS011;38041;40.058;18.328;2022-09-16T09:03:45;15.70;;;3.28;;
52025;SDS011;38041;40.058;18.328;2022-09-16T09:11:46;13.07;;;5.60;;
52025;SDS011;38041;40.058;18.328;2022-09-16T09:27:14;12.32;;;3.47;;
52025;SDS011;38041;40.058;18.328;2022-09-16T09:29:54;18.30;;;6.53;;
52025;SDS011;38041;40.058;18.328;2022-09-16T09:37:57;19.83;;;10.02;;
52025;SDS011;38041;40.058;18.328;2022-09-16T09:40:46;12.15;;;5.50;;
52025;SDS011;38041;40.058;18.328;2022-09-16T09:43:19;7.88;;;3.75;;
52025;SDS011;38041;40.058;18.328;2022-09-16T09:48:26;21.77;;;4.65;;
52025;SDS011;38041;40.058;18.328;2022-09-16T09:50:56;15.75;;;10.13;;
52025;SDS011;38041;40.058;18.328;2022-09-16T09:53:27;8.63;;;5.50;;
52025;SDS011;38041;40.058;18.328;2022-09-16T09:55:58;12.95;;;3.13;;
52025;SDS011;38041;40.058;18.328;2022-09-16T10:00:55;11.77;;;3.88;;
52025;SDS011;38041;40.058;18.328;2022-09-16T10:03:23;14.18;;;5.28;;
52025;SDS011;38041;40.058;18.328;2022-09-16T10:05:51;11.45;;;4.25;;
52025;SDS011;38041;40.058;18.328;2022-09-16T10:11:27;11.98;;;2.25;;
52025;SDS011;38041;40.058;18.328;2022-09-16T10:13:54;14.88;;;9.30;;
52025;SDS011;38041;40.058;18.328;2022-09-16T10:16:24;11.55;;;3.40;;
52025;SDS011;38041;40.058;18.328;2022-09-16T10:21:23;11.43;;;5.35;;
52025;SDS011;38041;40.058;18.328;2022-09-16T10:23:55;11.80;;;1.23;;
52025;SDS011;38041;40.058;18.328;2022-09-16T10:26:24;9.35;;;3.63;;
52025;SDS011;38041;40.058;18.328;2022-09-16T10:28:53;128.18;;;113.90;;
52025;SDS011;38041;40.058;18.328;2022-09-16T10:31:22;62.15;;;49.03;;
52025;SDS011;38041;40.058;18.328;2022-09-16T10:33:50;34.47;;;25.40;;
52025;SDS011;38041;40.058;18.328;2022-09-16T10:36:18;10.60;;;6.03;;
52025;SDS011;38041;40.058;18.328;2022-09-16T10:38:53;19.25;;;10.88;;
52025;SDS011;38041;40.058;18.328;2022-09-16T10:41:26;12.13;;;2.60;;
52025;SDS011;38041;40.058;18.328;2022-09-16T10:44:13;20.85;;;15.32;;
52025;SDS011;38041;40.058;18.328;2022-09-16T10:46:51;8.18;;;2.35;;
52025;SDS011;38041;40.058;18.328;2022-09-16T10:49:22;25.15;;;16.73;;
52025;SDS011;38041;40.058;18.328;2022-09-16T10:51:50;29.55;;;20.65;;
52025;SDS011;38041;40.058;18.328;2022-09-16T10:54:25;59.20;;;48.13;;
52025;SDS011;38041;40.058;18.328;2022-09-16T10:56:53;24.52;;;15.27;;
52025;SDS011;38041;40.058;18.328;2022-09-16T10:59:21;92.43;;;72.43;;
52025;SDS011;38041;40.058;18.328;2022-09-16T11:19:49;41.47;;;31.70;;
52025;SDS011;38041;40.058;18.328;2022-09-16T11:22:24;41.90;;;27.25;;
52025;SDS011;38041;40.058;18.328;2022-09-16T11:30:29;34.95;;;21.50;;
52025;SDS011;38041;40.058;18.328;2022-09-16T11:35:58;25.30;;;16.42;;
52025;SDS011;38041;40.058;18.328;2022-09-16T11:41:09;22.70;;;13.50;;
52025;SDS011;38041;40.058;18.328;2022-09-16T11:43:48;10.52;;;4.70;;
52025;SDS011;38041;40.058;18.328;2022-09-16T11:56:40;17.02;;;8.48;;
52025;SDS011;38041;40.058;18.328;2022-09-16T12:01:43;12.13;;;2.10;;
52025;SDS011;38041;40.058;18.328;2022-09-16T12:06:43;10.50;;;4.18;;
52025;SDS011;38041;40.058;18.328;2022-09-16T12:09:19;13.50;;;2.22;;
52025;SDS011;38041;40.058;18.328;2022-09-16T12:11:50;10.68;;;2.72;;
52025;SDS011;38041;40.058;18.328;2022-09-16T12:14:30;16.10;;;3.55;;
52025;SDS011;38041;40.058;18.328;2022-09-16T12:17:02;12.60;;;2.75;;
52025;SDS011;38041;40.058;18.328;2022-09-16T12:19:36;8.18;;;1.65;;
52025;SDS011;38041;40.058;18.328;2022-09-16T12:22:08;13.55;;;3.13;;
52025;SDS011;38041;40.058;18.328;2022-09-16T12:24:45;8.45;;;1.30;;
52025;SDS011;38041;40.058;18.328;2022-09-16T12:30:05;9.65;;;2.58;;
52025;SDS011;38041;40.058;18.328;2022-09-16T12:35:12;10.25;;;2.28;;
52025;SDS011;38041;40.058;18.328;2022-09-16T12:37:50;8.23;;;2.08;;
52025;SDS011;38041;40.058;18.328;2022-09-16T12:40:26;9.63;;;2.70;;
52025;SDS011;38041;40.058;18.328;2022-09-16T12:50:25;9.32;;;2.00;;
52025;SDS011;38041;40.058;18.328;2022-09-16T13:03:32;21.75;;;2.60;;
52025;SDS011;38041;40.058;18.328;2022-09-16T13:06:04;14.57;;;1.73;;
52025;SDS011;38041;40.058;18.328;2022-09-16T13:08:33;12.05;;;2.63;;
52025;SDS011;38041;40.058;18.328;2022-09-16T13:11:03;11.25;;;1.58;;
52025;SDS011;38041;40.058;18.328;2022-09-16T13:13:53;11.63;;;1.98;;
52025;SDS011;38041;40.058;18.328;2022-09-16T13:16:32;11.70;;;2.08;;
52025;SDS011;38041;40.058;18.328;2022-09-16T13:21:46;10.63;;;2.95;;
52025;SDS011;38041;40.058;18.328;2022-09-16T13:24:24;7.43;;;2.25;;
52025;SDS011;38041;40.058;18.328;2022-09-16T13:26:54;8.63;;;1.60;;
52025;SDS011;38041;40.058;18.328;2022-09-16T13:29:29;10.85;;;2.80;;
52025;SDS011;38041;40.058;18.328;2022-09-16T13:31:57;17.23;;;3.47;;
52025;SDS011;38041;40.058;18.328;2022-09-16T13:34:25;14.52;;;3.15;;
52025;SDS011;38041;40.058;18.328;2022-09-16T13:36:53;10.50;;;1.65;;
52025;SDS011;38041;40.058;18.328;2022-09-16T13:39:31;14.00;;;2.78;;
52025;SDS011;38041;40.058;18.328;2022-09-16T13:42:16;6.18;;;2.15;;
52025;SDS011;38041;40.058;18.328;2022-09-16T13:44:46;9.45;;;3.05;;
52025;SDS011;38041;40.058;18.328;2022-09-16T13:47:14;9.35;;;2.05;;
52025;SDS011;38041;40.058;18.328;2022-09-16T13:52:20;10.55;;;2.38;;
52025;SDS011;38041;40.058;18.328;2022-09-16T13:54:51;9.60;;;1.27;;
52025;SDS011;38041;40.058;18.328;2022-09-16T14:10:24;5.32;;;1.83;;
52025;SDS011;38041;40.058;18.328;2022-09-16T14:13:00;7.35;;;2.35;;
52025;SDS011;38041;40.058;18.328;2022-09-16T14:15:33;11.82;;;1.58;;
52025;SDS011;38041;40.058;18.328;2022-09-16T14:18:02;10.10;;;2.28;;
52025;SDS011;38041;40.058;18.328;2022-09-16T14:20:30;13.98;;;1.63;;
52025;SDS011;38041;40.058;18.328;2022-09-16T14:23:01;8.80;;;2.17;;
52025;SDS011;38041;40.058;18.328;2022-09-16T14:25:30;11.30;;;1.60;;
52025;SDS011;38041;40.058;18.328;2022-09-16T14:28:08;10.07;;;2.83;;
52025;SDS011;38041;40.058;18.328;2022-09-16T14:30:35;11.55;;;3.53;;
52025;SDS011;38041;40.058;18.328;2022-09-16T14:33:05;16.02;;;2.45;;
52025;SDS011;38041;40.058;18.328;2022-09-16T14:35:33;12.30;;;2.40;;
52025;SDS011;38041;40.058;18.328;2022-09-16T14:38:02;9.18;;;1.52;;
52025;SDS011;38041;40.058;18.328;2022-09-16T14:40:30;18.45;;;2.92;;
52025;SDS011;38041;40.058;18.328;2022-09-16T14:43:03;11.68;;;2.45;;
52025;SDS011;38041;40.058;18.328;2022-09-16T14:45:31;61.80;;;5.90;;
52025;SDS011;38041;40.058;18.328;2022-09-16T14:48:01;88.50;;;8.60;;
52025;SDS011;38041;40.058;18.328;2022-09-16T14:50:34;14.80;;;2.03;;
52025;SDS011;38041;40.058;18.328;2022-09-16T14:53:04;89.53;;;8.00;;
52025;SDS011;38041;40.058;18.328;2022-09-16T14:55:33;14.85;;;4.80;;
52025;SDS011;38041;40.058;18.328;2022-09-16T14:58:03;12.35;;;2.63;;
52025;SDS011;38041;40.058;18.328;2022-09-16T15:00:38;15.45;;;2.35;;
52025;SDS011;38041;40.058;18.328;2022-09-16T15:03:11;11.25;;;2.45;;
52025;SDS011;38041;40.058;18.328;2022-09-16T15:05:41;10.15;;;2.80;;
52025;SDS011;38041;40.058;18.328;2022-09-16T15:10:55;9.52;;;2.50;;
52025;SDS011;38041;40.058;18.328;2022-09-16T15:13:25;13.10;;;2.25;;
52025;SDS011;38041;40.058;18.328;2022-09-16T15:20:57;11.18;;;2.13;;
52025;SDS011;38041;40.058;18.328;2022-09-16T15:23:26;11.55;;;2.28;;
52025;SDS011;38041;40.058;18.328;2022-09-16T15:25:58;11.45;;;2.13;;
52025;SDS011;38041;40.058;18.328;2022-09-16T15:28:26;8.95;;;1.83;;
52025;SDS011;38041;40.058;18.328;2022-09-16T15:30:54;18.33;;;2.45;;
52025;SDS011;38041;40.058;18.328;2022-09-16T15:35:50;12.93;;;3.20;;
52025;SDS011;38041;40.058;18.328;2022-09-16T15:38:19;14.52;;;3.58;;
52025;SDS011;38041;40.058;18.328;2022-09-16T15:40:48;21.23;;;3.08;;
52025;SDS011;38041;40.058;18.328;2022-09-16T15:43:26;12.50;;;3.75;;
52025;SDS011;38041;40.058;18.328;2022-09-16T15:45:59;19.33;;;4.45;;
52025;SDS011;38041;40.058;18.328;2022-09-16T15:48:32;11.75;;;2.70;;
52025;SDS011;38041;40.058;18.328;2022-09-16T15:51:02;22.98;;;6.40;;
52025;SDS011;38041;40.058;18.328;2022-09-16T15:56:02;13.88;;;3.22;;
52025;SDS011;38041;40.058;18.328;2022-09-16T16:00:59;12.20;;;4.88;;
52025;SDS011;38041;40.058;18.328;2022-09-16T16:03:29;9.18;;;3.42;;
52025;SDS011;38041;40.058;18.328;2022-09-16T16:05:58;9.30;;;4.50;;
52025;SDS011;38041;40.058;18.328;2022-09-16T16:08:46;13.15;;;3.67;;
52025;SDS011;38041;40.058;18.328;2022-09-16T16:11:15;11.50;;;2.40;;
52025;SDS011;38041;40.058;18.328;2022-09-16T16:13:43;12.35;;;3.28;;
52025;SDS011;38041;40.058;18.328;2022-09-16T16:16:13;15.50;;;4.45;;
52025;SDS011;38041;40.058;18.328;2022-09-16T16:18:41;15.05;;;3.60;;
52025;SDS011;38041;40.058;18.328;2022-09-16T16:21:10;14.55;;;3.05;;
52025;SDS011;38041;40.058;18.328;2022-09-16T16:23:38;13.48;;;3.65;;
52025;SDS011;38041;40.058;18.328;2022-09-16T16:26:07;23.45;;;12.43;;
52025;SDS011;38041;40.058;18.328;2022-09-16T16:28:35;43.45;;;31.13;;
52025;SDS011;38041;40.058;18.328;2022-09-16T16:31:08;28.52;;;17.55;;
52025;SDS011;38041;40.058;18.328;2022-09-16T16:33:35;73.72;;;51.58;;
52025;SDS011;38041;40.058;18.328;2022-09-16T16:36:05;118.35;;;85.15;;
52025;SDS011;38041;40.058;18.328;2022-09-16T16:38:32;102.82;;;71.75;;
52025;SDS011;38041;40.058;18.328;2022-09-16T16:41:00;56.83;;;37.33;;
52025;SDS011;38041;40.058;18.328;2022-09-16T16:43:28;26.48;;;14.48;;
52025;SDS011;38041;40.058;18.328;2022-09-16T16:45:56;22.67;;;6.35;;
52025;SDS011;38041;40.058;18.328;2022-09-16T16:48:27;24.88;;;7.28;;
52025;SDS011;38041;40.058;18.328;2022-09-16T16:50:59;16.42;;;6.03;;
52025;SDS011;38041;40.058;18.328;2022-09-16T16:53:27;22.85;;;6.57;;
52025;SDS011;38041;40.058;18.328;2022-09-16T16:56:01;19.05;;;5.30;;
52025;SDS011;38041;40.058;18.328;2022-09-16T17:01:05;17.05;;;5.13;;
52025;SDS011;38041;40.058;18.328;2022-09-16T17:03:33;15.25;;;4.20;;
52025;SDS011;38041;40.058;18.328;2022-09-16T17:06:01;14.05;;;4.20;;
52025;SDS011;38041;40.058;18.328;2022-09-16T17:08:29;14.95;;;4.40;;
52025;SDS011;38041;40.058;18.328;2022-09-16T17:11:07;15.82;;;4.43;;
52025;SDS011;38041;40.058;18.328;2022-09-16T17:13:36;21.40;;;3.92;;
52025;SDS011;38041;40.058;18.328;2022-09-16T17:16:04;14.10;;;3.15;;
52025;SDS011;38041;40.058;18.328;2022-09-16T17:18:35;18.55;;;4.47;;
52025;SDS011;38041;40.058;18.328;2022-09-16T17:21:04;17.13;;;5.75;;
52025;SDS011;38041;40.058;18.328;2022-09-16T17:23:33;14.93;;;5.13;;
52025;SDS011;38041;40.058;18.328;2022-09-16T17:26:01;24.35;;;5.03;;
52025;SDS011;38041;40.058;18.328;2022-09-16T17:28:29;11.45;;;4.45;;
52025;SDS011;38041;40.058;18.328;2022-09-16T17:30:57;16.45;;;4.72;;
52025;SDS011;38041;40.058;18.328;2022-09-16T17:33:24;9.35;;;3.92;;
52025;SDS011;38041;40.058;18.328;2022-09-16T17:35:59;21.40;;;4.07;;
52025;SDS011;38041;40.058;18.328;2022-09-16T17:43:28;18.40;;;5.88;;
52025;SDS011;38041;40.058;18.328;2022-09-16T17:45:58;16.35;;;4.53;;
52025;SDS011;38041;40.058;18.328;2022-09-16T17:48:27;18.23;;;5.05;;
52025;SDS011;38041;40.058;18.328;2022-09-16T17:50:55;21.52;;;4.68;;
52025;SDS011;38041;40.058;18.328;2022-09-16T17:53:23;14.82;;;5.15;;
52025;SDS011;38041;40.058;18.328;2022-09-16T17:55:50;22.77;;;9.90;;
52025;SDS011;38041;40.058;18.328;2022-09-16T17:58:18;13.40;;;5.05;;
52025;SDS011;38041;40.058;18.328;2022-09-16T18:00:46;16.65;;;7.35;;
52025;SDS011;38041;40.058;18.328;2022-09-16T18:03:14;25.73;;;8.55;;
52025;SDS011;38041;40.058;18.328;2022-09-16T18:05:41;30.38;;;14.18;;
52025;SDS011;38041;40.058;18.328;2022-09-16T18:08:10;17.67;;;5.72;;
52025;SDS011;38041;40.058;18.328;2022-09-16T18:10:38;23.83;;;5.25;;
52025;SDS011;38041;40.058;18.328;2022-09-16T18:13:05;21.60;;;9.02;;